createdAt,value
2022-08-24T00:00:46.764Z,89.63
2022-08-24T00:03:15.669Z,89.51
2022-08-24T00:05:44.500Z,88.99
2022-08-24T00:08:13.520Z,88.86
2022-08-24T00:10:42.993Z,88.52
2022-08-24T00:13:12.240Z,88.96
2022-08-24T00:15:41.576Z,89.11
2022-08-24T00:18:12.225Z,88.79
2022-08-24T00:20:45.341Z,89.16
2022-08-24T00:23:14.401Z,89.61
2022-08-24T00:25:43.237Z,89.77
2022-08-24T00:28:12.472Z,89.73
2022-08-24T00:30:41.604Z,89.58
2022-08-24T00:33:11.748Z,89.48
2022-08-24T00:35:40.573Z,89.74
2022-08-24T00:38:09.559Z,89.61
2022-08-24T00:40:42.708Z,89.80
2022-08-24T00:43:12.658Z,90.22
2022-08-24T00:45:47.427Z,89.90
2022-08-24T00:48:23.116Z,89.51
2022-08-24T00:51:00.483Z,90.06
2022-08-24T00:53:35.980Z,89.86
2022-08-24T00:56:10.255Z,90.07
2022-08-24T00:58:46.294Z,90.04
2022-08-24T01:01:23.078Z,90.01
2022-08-24T01:03:56.981Z,90.16
2022-08-24T01:06:26.149Z,90.04
2022-08-24T01:08:56.594Z,90.50
2022-08-24T01:11:33.696Z,90.31
2022-08-24T01:14:05.407Z,90.45
2022-08-24T01:16:51.656Z,89.97
2022-08-24T01:19:34.298Z,90.20
2022-08-24T01:22:20.811Z,90.85
2022-08-24T01:24:51.352Z,90.74
2022-08-24T01:27:23.902Z,90.79
2022-08-24T01:30:00.011Z,90.87
2022-08-24T01:32:29.135Z,90.79
2022-08-24T01:34:58.856Z,90.38
2022-08-24T01:37:28.877Z,90.16
2022-08-24T01:40:00.626Z,90.35
2022-08-24T01:42:31.061Z,90.77
2022-08-24T01:44:59.779Z,90.80
2022-08-24T01:47:28.903Z,90.67
2022-08-24T01:49:59.140Z,90.59
2022-08-24T01:52:43.441Z,90.65
2022-08-24T01:55:22.502Z,90.83
2022-08-24T01:57:51.910Z,90.37
2022-08-24T02:00:20.876Z,90.79
2022-08-24T02:02:49.996Z,90.45
2022-08-24T02:05:19.369Z,91.02
2022-08-24T02:07:48.890Z,91.45
2022-08-24T02:10:20.233Z,91.15
2022-08-24T02:12:58.771Z,90.90
2022-08-24T02:15:31.615Z,90.75
2022-08-24T02:18:01.634Z,90.70
2022-08-24T02:20:30.585Z,91.01
2022-08-24T02:22:59.677Z,90.81
2022-08-24T02:25:30.874Z,90.70
2022-08-24T02:28:00.638Z,90.80
2022-08-24T02:30:32.291Z,90.96
2022-08-24T02:33:02.704Z,91.07
2022-08-24T02:35:32.734Z,90.82
2022-08-24T02:38:03.121Z,90.97
2022-08-24T02:40:34.868Z,90.43
2022-08-24T02:43:06.032Z,90.53
2022-08-24T02:45:39.940Z,89.99
2022-08-24T02:48:08.943Z,89.97
2022-08-24T02:50:42.725Z,90.58
2022-08-24T02:53:14.149Z,90.57
2022-08-24T02:55:45.550Z,90.71
2022-08-24T02:58:18.932Z,91.25
2022-08-24T03:00:50.416Z,91.02
2022-08-24T03:03:21.854Z,90.85
2022-08-24T03:05:50.722Z,90.56
2022-08-24T03:08:21.117Z,90.83
2022-08-24T03:10:51.369Z,90.64
2022-08-24T03:13:20.349Z,91.07
2022-08-24T03:15:49.348Z,91.24
2022-08-24T03:18:18.161Z,90.95
2022-08-24T03:20:55.327Z,90.82
2022-08-24T03:23:25.010Z,90.66
2022-08-24T03:25:56.495Z,90.63
2022-08-24T03:28:26.906Z,91.07
2022-08-24T03:30:57.095Z,90.97
2022-08-24T03:33:26.118Z,91.14
2022-08-24T03:35:55.419Z,91.34
2022-08-24T03:38:25.644Z,91.25
2022-08-24T03:40:55.868Z,91.13
2022-08-24T03:43:42.260Z,91.20
2022-08-24T03:46:12.589Z,91.14
2022-08-24T03:48:44.472Z,90.89
2022-08-24T03:51:17.866Z,91.39
2022-08-24T03:53:49.101Z,91.32
2022-08-24T03:56:19.835Z,91.21
2022-08-24T03:58:49.641Z,91.53
2022-08-24T04:01:19.742Z,91.46
2022-08-24T04:03:50.811Z,91.07
2022-08-24T04:06:21.984Z,91.26
2022-08-24T04:08:51.355Z,91.38
2022-08-24T04:11:28.228Z,91.57
2022-08-24T04:13:59.703Z,91.51
2022-08-24T04:16:30.646Z,91.36
2022-08-24T04:19:14.978Z,91.92
2022-08-24T04:21:44.621Z,91.74
2022-08-24T04:24:14.827Z,91.92
2022-08-24T04:26:46.185Z,92.02
2022-08-24T04:29:21.376Z,91.64
2022-08-24T04:31:54.004Z,91.77
2022-08-24T04:34:24.374Z,91.94
2022-08-24T04:36:53.420Z,91.94
2022-08-24T04:39:22.166Z,91.76
2022-08-24T04:42:14.724Z,92.00
2022-08-24T04:44:44.784Z,91.75
2022-08-24T04:47:15.672Z,91.87
2022-08-24T04:49:44.507Z,91.80
2022-08-24T04:52:13.435Z,92.14
2022-08-24T04:54:43.989Z,91.84
2022-08-24T04:57:19.790Z,92.24
2022-08-24T04:59:49.582Z,92.35
2022-08-24T05:02:18.969Z,92.23
2022-08-24T05:04:50.919Z,92.47
2022-08-24T05:07:20.149Z,92.69
2022-08-24T05:09:48.925Z,92.47
2022-08-24T05:12:23.459Z,92.61
2022-08-24T05:15:00.812Z,92.63
2022-08-24T05:17:32.537Z,92.75
2022-08-24T05:20:01.510Z,92.64
2022-08-24T05:22:32.622Z,92.56
2022-08-24T05:25:01.630Z,92.95
2022-08-24T05:27:33.949Z,92.38
2022-08-24T05:30:03.333Z,92.35
2022-08-24T05:32:32.269Z,92.62
2022-08-24T05:35:04.844Z,92.47
2022-08-24T05:37:37.157Z,92.92
2022-08-24T05:40:20.728Z,92.74
2022-08-24T05:42:55.908Z,92.99
2022-08-24T05:45:24.902Z,93.19
2022-08-24T05:47:53.889Z,93.00
2022-08-24T05:50:45.818Z,93.79
2022-08-24T05:53:15.754Z,93.53
2022-08-24T05:55:47.068Z,93.54
2022-08-24T05:58:23.160Z,93.74
2022-08-24T06:01:01.147Z,93.30
2022-08-24T06:03:29.909Z,93.44
2022-08-24T06:05:58.853Z,93.34
2022-08-24T06:08:27.729Z,93.49
2022-08-24T06:10:56.903Z,93.41
2022-08-24T06:13:27.119Z,93.13
2022-08-24T06:16:20.725Z,93.15
2022-08-24T06:18:51.321Z,93.58
2022-08-24T06:21:23.614Z,93.10
2022-08-24T06:23:53.627Z,93.09
2022-08-24T06:26:40.901Z,93.53
2022-08-24T06:29:12.542Z,93.27
2022-08-24T06:31:54.383Z,93.51
2022-08-24T06:34:26.929Z,93.39
2022-08-24T06:36:56.017Z,93.14
2022-08-24T06:39:27.842Z,93.09
2022-08-24T06:41:58.661Z,92.93
2022-08-24T06:44:34.299Z,92.74
2022-08-24T06:47:13.788Z,92.72
2022-08-24T06:49:42.860Z,92.59
2022-08-24T06:52:12.382Z,92.41
2022-08-24T06:54:41.529Z,92.48
2022-08-24T06:57:10.341Z,92.37
2022-08-24T06:59:43.172Z,92.38
2022-08-24T07:02:15.926Z,92.47
2022-08-24T07:04:46.208Z,92.37
2022-08-24T07:07:33.306Z,91.89
2022-08-24T07:10:03.335Z,91.97
2022-08-24T07:12:32.729Z,91.35
2022-08-24T07:15:02.893Z,91.00
2022-08-24T07:17:31.758Z,90.63
2022-08-24T07:20:00.527Z,89.87
2022-08-24T07:22:49.543Z,89.59
2022-08-24T07:25:19.359Z,89.40
2022-08-24T07:27:49.671Z,89.14
2022-08-24T07:30:27.945Z,88.49
2022-08-24T07:32:59.287Z,88.66
2022-08-24T07:35:32.450Z,88.16
2022-08-24T07:38:02.975Z,88.52
2022-08-24T07:40:36.460Z,87.95
2022-08-24T07:43:18.159Z,87.57
2022-08-24T07:45:52.430Z,88.21
2022-08-24T07:48:21.480Z,86.79
2022-08-24T07:50:53.309Z,87.20
2022-08-24T07:53:27.867Z,86.78
2022-08-24T07:56:01.318Z,86.35
2022-08-24T07:58:31.494Z,85.44
2022-08-24T08:01:02.466Z,85.30
2022-08-24T08:03:33.563Z,85.05
2022-08-24T08:06:11.179Z,84.71
2022-08-24T08:08:45.704Z,85.17
2022-08-24T08:11:14.815Z,84.84
2022-08-24T08:16:21.395Z,85.29
2022-08-24T08:18:56.501Z,84.83
2022-08-24T08:21:52.370Z,85.00
2022-08-24T08:24:21.204Z,84.49
2022-08-24T08:26:55.735Z,85.06
2022-08-24T08:29:32.895Z,85.11
2022-08-24T08:32:04.450Z,85.49
2022-08-24T08:34:34.154Z,85.85
2022-08-24T08:37:04.488Z,85.30
2022-08-24T08:39:33.729Z,86.09
2022-08-24T08:42:37.286Z,86.59
2022-08-24T08:45:42.536Z,86.85
2022-08-24T08:49:35.056Z,87.18
2022-08-24T08:52:41.477Z,87.12
2022-08-24T08:55:29.214Z,87.06
2022-08-24T08:58:29.844Z,87.04
2022-08-24T09:01:10.860Z,86.28
2022-08-24T09:04:48.727Z,85.35
2022-08-24T09:07:40.638Z,81.36
2022-08-24T09:10:51.946Z,79.64
2022-08-24T09:13:44.539Z,79.97
2022-08-24T09:16:39.090Z,79.89
2022-08-24T09:19:41.427Z,79.82
2022-08-24T09:22:15.898Z,78.80
2022-08-24T09:25:07.361Z,78.78
2022-08-24T09:28:30.088Z,78.55
2022-08-24T09:31:51.751Z,78.31
2022-08-24T09:34:37.662Z,77.67
2022-08-24T09:37:31.898Z,77.47
2022-08-24T09:40:27.214Z,78.23
2022-08-24T09:43:53.472Z,76.56
2022-08-24T09:47:23.529Z,76.57
2022-08-24T09:50:35.394Z,75.82
2022-08-24T09:53:46.538Z,76.82
2022-08-24T09:56:53.823Z,77.24
2022-08-24T09:59:54.276Z,75.62
2022-08-24T10:02:50.482Z,76.85
2022-08-24T10:05:37.015Z,77.39
2022-08-24T10:08:21.406Z,76.33
2022-08-24T10:11:00.085Z,74.17
2022-08-24T10:13:56.650Z,74.27
2022-08-24T10:16:40.015Z,70.86
2022-08-24T10:19:39.413Z,73.84
2022-08-24T10:22:32.595Z,72.83
2022-08-24T10:25:32.546Z,71.86
2022-08-24T10:28:41.858Z,70.35
2022-08-24T10:31:14.523Z,72.06
2022-08-24T10:34:04.386Z,72.62
2022-08-24T10:37:03.685Z,73.17
2022-08-24T10:40:13.290Z,72.15
2022-08-24T10:43:35.894Z,71.16
2022-08-24T10:46:40.609Z,70.09
2022-08-24T10:50:21.137Z,66.41
2022-08-24T10:53:21.039Z,65.63
2022-08-24T10:56:05.681Z,61.72
2022-08-24T10:58:53.356Z,63.28
2022-08-24T11:01:31.303Z,63.98
2022-08-24T11:04:09.812Z,64.97
2022-08-24T11:06:41.839Z,66.18
2022-08-24T11:09:19.762Z,65.99
2022-08-24T11:11:52.450Z,67.11
2022-08-24T11:14:32.096Z,67.08
2022-08-24T11:17:18.193Z,69.37
2022-08-24T11:19:47.450Z,69.11
2022-08-24T11:23:01.248Z,69.98
2022-08-24T11:25:33.534Z,70.69
2022-08-24T11:28:11.081Z,71.20
2022-08-24T11:30:42.349Z,71.29
2022-08-24T11:33:30.948Z,70.70
2022-08-24T11:36:01.563Z,71.15
2022-08-24T11:38:35.028Z,71.22
2022-08-24T11:41:14.587Z,71.08
2022-08-24T11:44:02.086Z,70.52
2022-08-24T11:46:46.892Z,70.97
2022-08-24T11:49:34.311Z,71.05
2022-08-24T11:52:12.876Z,69.66
2022-08-24T11:54:58.517Z,69.64
2022-08-24T11:57:47.579Z,70.52
2022-08-24T12:00:22.037Z,70.71
2022-08-24T12:03:02.696Z,69.37
2022-08-24T12:05:45.885Z,70.62
2022-08-24T12:08:28.741Z,69.78
2022-08-24T12:11:09.771Z,69.17
2022-08-24T12:13:49.298Z,68.71
2022-08-24T12:16:31.418Z,69.28
2022-08-24T12:19:10.304Z,67.99
2022-08-24T12:21:45.376Z,67.83
2022-08-24T12:24:21.340Z,69.33
2022-08-24T12:27:00.677Z,68.26
2022-08-24T12:29:38.261Z,68.71
2022-08-24T12:32:16.449Z,68.26
2022-08-24T12:34:58.850Z,67.11
2022-08-24T12:37:35.041Z,66.24
2022-08-24T12:40:15.322Z,64.37
2022-08-24T12:42:52.755Z,64.02
2022-08-24T12:45:24.418Z,65.07
2022-08-24T12:48:02.705Z,64.82
2022-08-24T12:50:45.481Z,66.10
2022-08-24T12:53:50.055Z,64.85
2022-08-24T12:56:57.915Z,64.35
2022-08-24T12:59:33.318Z,64.24
2022-08-24T13:02:08.373Z,65.08
2022-08-24T13:04:55.572Z,66.28
2022-08-24T13:07:32.981Z,65.43
2022-08-24T13:10:14.680Z,65.23
2022-08-24T13:13:13.462Z,64.41
2022-08-24T13:16:03.625Z,65.23
2022-08-24T13:19:33.902Z,63.74
2022-08-24T13:22:49.061Z,63.56
2022-08-24T13:25:53.610Z,63.93
2022-08-24T13:28:56.853Z,60.93
2022-08-24T13:31:34.683Z,58.44
2022-08-24T13:34:44.417Z,60.53
2022-08-24T13:37:19.088Z,60.29
2022-08-24T13:40:10.029Z,58.12
2022-08-24T13:43:11.754Z,58.67
2022-08-24T13:45:53.713Z,58.68
2022-08-24T13:48:45.172Z,58.39
2022-08-24T13:51:34.759Z,58.69
2022-08-24T13:54:31.507Z,60.12
2022-08-24T13:57:30.865Z,60.55
2022-08-24T14:00:34.333Z,61.33
2022-08-24T14:03:30.289Z,60.81
2022-08-24T14:06:21.368Z,61.51
2022-08-24T14:09:04.834Z,61.81
2022-08-24T14:12:07.432Z,60.37
2022-08-24T14:15:02.533Z,60.46
2022-08-24T14:17:53.895Z,56.59
2022-08-24T14:21:09.131Z,53.97
2022-08-24T14:23:58.305Z,50.21
2022-08-24T14:27:10.489Z,51.29
2022-08-24T14:29:45.462Z,53.34
2022-08-24T14:32:32.751Z,54.49
2022-08-24T14:35:37.419Z,53.13
2022-08-24T14:38:50.668Z,55.00
2022-08-24T14:41:50.297Z,55.39
2022-08-24T14:44:54.356Z,55.13
2022-08-24T14:47:42.028Z,55.70
2022-08-24T14:50:21.693Z,55.26
2022-08-24T14:53:10.742Z,54.16
2022-08-24T14:55:56.968Z,54.95
2022-08-24T14:58:44.830Z,55.53
2022-08-24T15:01:42.517Z,54.46
2022-08-24T15:04:44.494Z,55.65
2022-08-24T15:07:32.645Z,56.89
2022-08-24T15:10:05.761Z,56.36
2022-08-24T15:12:42.739Z,58.13
2022-08-24T15:15:21.742Z,57.96
2022-08-24T15:18:06.406Z,57.73
2022-08-24T15:20:58.015Z,58.29
2022-08-24T15:23:57.246Z,58.12
2022-08-24T15:26:46.074Z,59.27
2022-08-24T15:29:21.498Z,60.22
2022-08-24T15:32:07.987Z,60.56
2022-08-24T15:34:45.583Z,59.78
2022-08-24T15:37:17.059Z,58.72
2022-08-24T15:39:45.898Z,59.80
2022-08-24T15:42:16.909Z,59.77
2022-08-24T15:44:50.220Z,60.40
2022-08-24T15:47:28.894Z,61.08
2022-08-24T15:50:02.952Z,61.32
2022-08-24T15:52:51.885Z,60.92
2022-08-24T15:55:47.894Z,61.91
2022-08-24T15:58:42.430Z,61.75
2022-08-24T16:01:42.332Z,62.48
2022-08-24T16:04:35.428Z,62.12
2022-08-24T16:07:05.930Z,61.30
2022-08-24T16:09:38.868Z,62.30
2022-08-24T16:12:16.435Z,62.11
2022-08-24T16:14:50.338Z,63.45
2022-08-24T16:17:35.987Z,64.83
2022-08-24T16:20:12.399Z,66.13
2022-08-24T16:22:57.015Z,64.92
2022-08-24T16:25:32.845Z,64.12
2022-08-24T16:28:12.768Z,65.35
2022-08-24T16:30:52.599Z,66.46
2022-08-24T16:33:45.730Z,66.85
2022-08-24T16:36:18.063Z,67.31
2022-08-24T16:38:51.511Z,68.23
2022-08-24T16:41:26.139Z,68.29
2022-08-24T16:43:55.164Z,68.89
2022-08-24T16:46:26.934Z,69.44
2022-08-24T16:48:55.988Z,69.77
2022-08-24T16:51:26.263Z,69.90
2022-08-24T16:53:58.815Z,70.01
2022-08-24T16:56:30.238Z,70.72
2022-08-24T16:59:00.488Z,70.48
2022-08-24T17:01:30.585Z,70.66
2022-08-24T17:03:59.547Z,71.06
2022-08-24T17:06:28.572Z,71.38
2022-08-24T17:09:00.570Z,71.92
2022-08-24T17:11:29.848Z,71.27
2022-08-24T17:13:58.640Z,72.03
2022-08-24T17:16:28.999Z,71.78
2022-08-24T17:19:01.180Z,72.78
2022-08-24T17:21:30.337Z,74.02
2022-08-24T17:24:01.769Z,74.74
2022-08-24T17:26:33.028Z,75.02
2022-08-24T17:29:09.527Z,75.53
2022-08-24T17:31:40.679Z,76.07
2022-08-24T17:34:11.503Z,75.81
2022-08-24T17:36:43.694Z,76.50
2022-08-24T17:39:16.707Z,76.74
2022-08-24T17:41:47.135Z,77.43
2022-08-24T17:44:25.175Z,77.22
2022-08-24T17:46:59.085Z,77.51
2022-08-24T17:49:30.281Z,77.28
2022-08-24T17:52:28.003Z,77.57
2022-08-24T17:55:14.615Z,77.53
2022-08-24T17:57:49.039Z,77.05
2022-08-24T18:00:20.714Z,77.05
2022-08-24T18:02:52.097Z,77.30
2022-08-24T18:05:22.231Z,78.16
2022-08-24T18:07:58.940Z,78.63
2022-08-24T18:10:32.773Z,78.61
2022-08-24T18:13:04.216Z,79.25
2022-08-24T18:15:40.305Z,79.14
2022-08-24T18:18:12.536Z,79.14
2022-08-24T18:20:43.864Z,79.29
2022-08-24T18:23:14.394Z,80.00
2022-08-24T18:25:53.783Z,79.74
2022-08-24T18:28:24.718Z,79.95
2022-08-24T18:30:54.248Z,80.37
2022-08-24T18:33:24.935Z,80.27
2022-08-24T18:35:54.692Z,80.83
2022-08-24T18:38:27.293Z,80.74
2022-08-24T18:40:58.766Z,80.83
2022-08-24T18:43:31.295Z,81.04
2022-08-24T18:46:06.908Z,81.27
2022-08-24T18:48:36.434Z,81.13
2022-08-24T18:51:07.286Z,81.03
2022-08-24T18:53:36.999Z,81.24
2022-08-24T18:56:12.453Z,81.31
2022-08-24T18:58:42.405Z,81.46
2022-08-24T19:01:13.331Z,81.69
2022-08-24T19:03:43.639Z,81.74
2022-08-24T19:06:12.488Z,81.64
2022-08-24T19:08:45.155Z,81.68
2022-08-24T19:11:19.864Z,81.63
2022-08-24T19:13:49.802Z,81.79
2022-08-24T19:16:18.881Z,81.73
2022-08-24T19:18:51.122Z,81.98
2022-08-24T19:21:21.155Z,82.14
2022-08-24T19:23:51.041Z,82.51
2022-08-24T19:26:25.282Z,82.77
2022-08-24T19:28:54.982Z,81.88
2022-08-24T19:31:30.049Z,82.27
2022-08-24T19:34:03.431Z,82.18
2022-08-24T19:36:33.226Z,82.41
2022-08-24T19:39:03.854Z,82.53
2022-08-24T19:41:39.802Z,82.55
2022-08-24T19:44:32.584Z,82.75
2022-08-24T19:47:02.458Z,82.60
2022-08-24T19:49:34.875Z,82.80
2022-08-24T19:52:04.610Z,82.86
2022-08-24T19:54:38.165Z,82.25
2022-08-24T19:57:41.503Z,82.11
2022-08-24T20:00:35.149Z,82.53
2022-08-24T20:03:06.295Z,82.71
2022-08-24T20:05:37.625Z,82.86
2022-08-24T20:08:06.826Z,82.67
2022-08-24T20:10:35.964Z,83.01
2022-08-24T20:13:06.758Z,83.14
2022-08-24T20:15:36.457Z,82.97
2022-08-24T20:18:05.826Z,82.42
2022-08-24T20:20:34.980Z,83.14
2022-08-24T20:23:06.428Z,83.06
2022-08-24T20:25:37.437Z,83.24
2022-08-24T20:30:57.680Z,83.23
2022-08-24T20:33:28.068Z,83.33
2022-08-24T20:35:58.060Z,83.32
2022-08-24T20:38:29.389Z,83.44
2022-08-24T20:41:02.137Z,83.45
2022-08-24T20:43:32.423Z,83.56
2022-08-24T20:46:01.861Z,83.40
2022-08-24T20:48:34.129Z,83.52
2022-08-24T20:51:03.448Z,83.41
2022-08-24T20:53:32.246Z,83.51
2022-08-24T20:56:08.585Z,83.00
2022-08-24T20:58:40.666Z,83.26
2022-08-24T21:01:10.211Z,83.23
2022-08-24T21:03:39.413Z,83.59
2022-08-24T21:06:09.946Z,83.56
2022-08-24T21:08:38.902Z,83.47
2022-08-24T21:11:07.761Z,83.17
2022-08-24T21:13:37.907Z,83.23
2022-08-24T21:16:07.675Z,83.18
2022-08-24T21:18:37.319Z,83.45
2022-08-24T21:21:06.741Z,83.46
2022-08-24T21:23:36.197Z,82.84
2022-08-24T21:26:08.878Z,82.92
2022-08-24T21:28:43.560Z,82.73
2022-08-24T21:31:12.532Z,82.66
2022-08-24T21:33:58.745Z,82.98
2022-08-24T21:36:31.959Z,83.16
2022-08-24T21:39:00.833Z,83.30
2022-08-24T21:41:29.960Z,83.18
2022-08-24T21:44:00.635Z,83.75
2022-08-24T21:46:34.940Z,83.48
2022-08-24T21:49:04.011Z,83.22
2022-08-24T21:51:33.063Z,83.04
2022-08-24T21:54:02.025Z,83.23
2022-08-24T21:56:34.532Z,83.89
2022-08-24T21:59:05.049Z,83.43
2022-08-24T22:01:34.052Z,83.42
2022-08-24T22:04:03.074Z,83.24
2022-08-24T22:06:33.622Z,83.33
2022-08-24T22:09:04.815Z,83.53
2022-08-24T22:11:33.691Z,83.37
2022-08-24T22:14:05.431Z,83.58
2022-08-24T22:16:36.895Z,83.71
2022-08-24T22:19:06.295Z,83.82
2022-08-24T22:21:36.415Z,83.75
2022-08-24T22:24:05.952Z,83.40
2022-08-24T22:26:36.801Z,83.84
2022-08-24T22:29:09.949Z,83.23
2022-08-24T22:31:42.492Z,83.36
2022-08-24T22:34:16.581Z,83.32
2022-08-24T22:36:50.542Z,83.29
2022-08-24T22:39:19.760Z,83.19
2022-08-24T22:41:48.552Z,83.29
2022-08-24T22:44:22.412Z,83.47
2022-08-24T22:46:54.089Z,83.16
2022-08-24T22:49:26.258Z,83.09
2022-08-24T22:51:55.591Z,83.08
2022-08-24T22:54:26.644Z,83.16
2022-08-24T22:56:58.397Z,83.58
2022-08-24T22:59:31.807Z,83.39
2022-08-24T23:02:00.493Z,83.88
2022-08-24T23:04:33.250Z,83.58
2022-08-24T23:07:03.170Z,83.64
2022-08-24T23:09:44.069Z,83.65
2022-08-24T23:12:19.815Z,83.44
2022-08-24T23:14:51.482Z,83.34
2022-08-24T23:17:22.312Z,83.54
2022-08-24T23:20:05.878Z,83.83
2022-08-24T23:22:38.928Z,84.10
2022-08-24T23:25:10.553Z,83.63
2022-08-24T23:27:39.669Z,83.92
2022-08-24T23:30:15.142Z,83.57
2022-08-24T23:32:44.193Z,83.98
2022-08-24T23:35:13.167Z,84.22
2022-08-24T23:37:42.296Z,83.70
2022-08-24T23:40:12.422Z,83.47
2022-08-24T23:42:41.168Z,83.30
2022-08-24T23:45:13.107Z,83.54
2022-08-24T23:47:42.210Z,83.77
2022-08-24T23:50:12.021Z,83.83
2022-08-24T23:52:41.936Z,83.86
2022-08-24T23:55:21.190Z,83.52
2022-08-24T23:57:52.381Z,83.55
